createdAt,value
2023-05-14T00:00:48.311Z,3.75
2023-05-14T00:03:15.991Z,4.88
2023-05-14T00:05:43.301Z,4.95
2023-05-14T00:08:10.298Z,4.38
2023-05-14T00:10:37.423Z,4.45
2023-05-14T00:13:04.616Z,4.57
2023-05-14T00:15:33.604Z,4.13
2023-05-14T00:18:02.005Z,3.17
2023-05-14T00:20:29.308Z,3.08
2023-05-14T00:22:56.674Z,3.85
2023-05-14T00:25:24.116Z,3.78
2023-05-14T00:27:51.218Z,3.03
2023-05-14T00:30:18.242Z,3.30
2023-05-14T00:32:45.397Z,2.95
2023-05-14T00:35:12.538Z,3.72
2023-05-14T00:37:39.650Z,3.20
2023-05-14T00:40:08.824Z,3.58
2023-05-14T00:42:36.032Z,3.60
2023-05-14T00:45:03.252Z,3.40
2023-05-14T00:47:30.546Z,2.72
2023-05-14T00:49:59.159Z,3.08
2023-05-14T00:52:26.569Z,3.10
2023-05-14T00:54:55.141Z,3.70
2023-05-14T00:57:22.512Z,3.03
2023-05-14T00:59:50.107Z,3.03
2023-05-14T01:02:17.743Z,3.13
2023-05-14T01:04:44.805Z,3.13
2023-05-14T01:07:28.130Z,3.60
2023-05-14T01:10:46.423Z,3.55
2023-05-14T01:13:47.927Z,3.25
2023-05-14T01:16:17.587Z,3.30
2023-05-14T01:18:47.768Z,3.33
2023-05-14T01:21:36.396Z,3.03
2023-05-14T01:24:03.755Z,3.25
2023-05-14T01:26:31.797Z,3.05
2023-05-14T01:29:16.352Z,3.38
2023-05-14T01:31:46.393Z,3.53
2023-05-14T01:34:14.983Z,3.17
2023-05-14T01:36:44.018Z,3.10
2023-05-14T01:39:12.430Z,3.10
2023-05-14T01:41:40.292Z,3.22
2023-05-14T01:44:09.348Z,2.58
2023-05-14T01:46:36.783Z,3.75
2023-05-14T01:49:04.056Z,2.47
2023-05-14T01:51:31.231Z,3.03
2023-05-14T01:53:58.686Z,3.47
2023-05-14T01:56:26.125Z,3.00
2023-05-14T01:58:53.269Z,3.20
2023-05-14T02:01:20.569Z,2.92
2023-05-14T02:03:47.767Z,3.08
2023-05-14T02:06:14.820Z,2.85
2023-05-14T02:08:41.878Z,3.17
2023-05-14T02:11:09.082Z,2.80
2023-05-14T02:13:37.021Z,3.00
2023-05-14T02:16:04.482Z,2.92
2023-05-14T02:18:31.889Z,2.67
2023-05-14T02:20:59.242Z,2.88
2023-05-14T02:23:37.747Z,3.13
2023-05-14T02:26:09.884Z,2.88
2023-05-14T02:28:37.122Z,2.90
2023-05-14T02:31:04.292Z,2.92
2023-05-14T02:33:31.482Z,3.10
2023-05-14T02:35:58.711Z,3.22
2023-05-14T02:38:27.018Z,2.85
2023-05-14T02:40:54.087Z,3.72
2023-05-14T02:43:21.323Z,3.08
2023-05-14T02:45:48.431Z,3.25
2023-05-14T02:48:15.568Z,2.95
2023-05-14T02:50:42.684Z,2.95
2023-05-14T02:53:10.322Z,3.08
2023-05-14T02:55:37.722Z,2.92
2023-05-14T02:58:04.803Z,2.95
2023-05-14T03:00:31.910Z,3.03
2023-05-14T03:02:59.758Z,3.22
2023-05-14T03:05:27.304Z,3.30
2023-05-14T03:07:54.478Z,3.20
2023-05-14T03:10:21.687Z,2.97
2023-05-14T03:12:49.724Z,3.13
2023-05-14T03:15:17.192Z,3.17
2023-05-14T03:17:44.491Z,2.63
2023-05-14T03:20:12.782Z,2.70
2023-05-14T03:22:40.328Z,2.65
2023-05-14T03:25:07.702Z,3.15
2023-05-14T03:27:34.901Z,2.90
2023-05-14T03:30:02.511Z,2.92
2023-05-14T03:32:30.537Z,3.30
2023-05-14T03:34:57.734Z,2.95
2023-05-14T03:37:25.234Z,3.00
2023-05-14T03:39:52.315Z,3.03
2023-05-14T03:42:19.421Z,2.90
2023-05-14T03:44:46.546Z,3.72
2023-05-14T03:47:13.600Z,3.30
2023-05-14T03:49:40.678Z,3.53
2023-05-14T03:52:07.811Z,3.10
2023-05-14T03:54:35.039Z,3.60
2023-05-14T03:57:02.263Z,3.28
2023-05-14T03:59:29.358Z,3.33
2023-05-14T04:01:56.554Z,4.55
2023-05-14T04:04:23.669Z,5.28
2023-05-14T04:06:50.842Z,4.60
2023-05-14T04:09:17.935Z,4.28
2023-05-14T04:11:44.980Z,4.38
2023-05-14T04:14:12.165Z,4.50
2023-05-14T04:16:39.315Z,3.88
2023-05-14T04:19:06.721Z,3.70
2023-05-14T04:21:33.871Z,3.75
2023-05-14T04:24:00.996Z,3.30
2023-05-14T04:26:28.737Z,3.22
2023-05-14T04:28:56.018Z,2.67
2023-05-14T04:31:23.631Z,3.38
2023-05-14T04:33:50.928Z,3.28
2023-05-14T04:36:17.997Z,3.10
2023-05-14T04:38:45.105Z,3.13
2023-05-14T04:41:12.186Z,3.22
2023-05-14T04:43:40.389Z,3.03
2023-05-14T04:46:07.559Z,3.08
2023-05-14T04:48:34.644Z,3.42
2023-05-14T04:51:01.740Z,3.00
2023-05-14T04:53:28.816Z,3.50
2023-05-14T04:55:55.895Z,3.40
2023-05-14T04:58:24.455Z,2.88
2023-05-14T05:00:51.584Z,3.47
2023-05-14T05:03:18.723Z,2.50
2023-05-14T05:05:46.001Z,3.20
2023-05-14T05:08:13.203Z,3.10
2023-05-14T05:10:40.305Z,2.83
2023-05-14T05:13:07.446Z,2.15
2023-05-14T05:15:34.892Z,3.00
2023-05-14T05:18:02.162Z,2.78
2023-05-14T05:20:29.250Z,3.22
2023-05-14T05:22:56.320Z,3.97
2023-05-14T05:25:23.431Z,3.60
2023-05-14T05:27:50.470Z,2.97
2023-05-14T05:30:17.558Z,3.33
2023-05-14T05:32:44.838Z,3.53
2023-05-14T05:35:11.914Z,3.53
2023-05-14T05:37:39.045Z,3.40
2023-05-14T05:40:07.287Z,2.92
2023-05-14T05:42:34.375Z,3.83
2023-05-14T05:45:01.498Z,3.17
2023-05-14T05:47:28.750Z,3.10
2023-05-14T05:49:55.802Z,3.50
2023-05-14T05:52:22.971Z,2.90
2023-05-14T05:54:50.453Z,2.97
2023-05-14T05:57:17.533Z,2.92
2023-05-14T05:59:44.573Z,3.08
2023-05-14T06:02:11.770Z,4.22
2023-05-14T06:04:38.886Z,3.88
2023-05-14T06:07:06.000Z,3.75
2023-05-14T06:09:33.118Z,3.05
2023-05-14T06:12:00.166Z,3.08
2023-05-14T06:14:27.278Z,3.38
2023-05-14T06:16:54.468Z,3.38
2023-05-14T06:19:23.420Z,3.35
2023-05-14T06:21:50.485Z,3.60
2023-05-14T06:24:17.678Z,3.25
2023-05-14T06:26:44.740Z,3.08
2023-05-14T06:29:11.882Z,3.00
2023-05-14T06:31:39.017Z,3.17
2023-05-14T06:34:06.188Z,2.97
2023-05-14T06:36:33.230Z,2.88
2023-05-14T06:39:00.296Z,3.20
2023-05-14T06:41:27.647Z,3.30
2023-05-14T06:43:55.500Z,3.28
2023-05-14T06:46:22.529Z,3.33
2023-05-14T06:48:49.696Z,3.17
2023-05-14T06:51:16.939Z,3.28
2023-05-14T06:53:44.041Z,2.90
2023-05-14T06:56:11.172Z,2.47
2023-05-14T06:58:38.219Z,3.42
2023-05-14T07:01:05.732Z,3.08
2023-05-14T07:03:32.796Z,3.00
2023-05-14T07:05:59.850Z,2.70
2023-05-14T07:08:26.901Z,2.70
2023-05-14T07:10:53.889Z,2.85
2023-05-14T07:13:20.959Z,3.22
2023-05-14T07:15:48.040Z,2.53
2023-05-14T07:18:15.133Z,2.42
2023-05-14T07:20:42.237Z,2.40
2023-05-14T07:23:09.342Z,2.60
2023-05-14T07:25:36.484Z,2.83
2023-05-14T07:28:03.639Z,2.50
2023-05-14T07:30:30.870Z,2.70
2023-05-14T07:32:57.950Z,2.85
2023-05-14T07:35:25.077Z,2.80
2023-05-14T07:37:52.258Z,2.80
2023-05-14T07:40:19.424Z,2.38
2023-05-14T07:42:46.441Z,2.90
2023-05-14T07:45:14.217Z,2.78
2023-05-14T07:47:41.346Z,3.20
2023-05-14T07:50:09.221Z,2.90
2023-05-14T07:52:36.578Z,2.80
2023-05-14T07:55:04.391Z,3.17
2023-05-14T07:57:31.465Z,3.40
2023-05-14T07:59:58.727Z,3.17
2023-05-14T08:02:25.945Z,2.85
2023-05-14T08:04:53.336Z,3.00
2023-05-14T08:07:20.786Z,3.45
2023-05-14T08:09:47.833Z,2.78
2023-05-14T08:12:15.272Z,2.78
2023-05-14T08:14:42.638Z,3.00
2023-05-14T08:17:09.955Z,3.25
2023-05-14T08:19:37.334Z,3.47
2023-05-14T08:22:04.651Z,3.50
2023-05-14T08:24:31.879Z,3.63
2023-05-14T08:26:59.063Z,3.65
2023-05-14T08:29:26.193Z,2.97
2023-05-14T08:31:53.243Z,3.70
2023-05-14T08:34:20.379Z,4.15
2023-05-14T08:36:47.394Z,3.55
2023-05-14T08:39:14.417Z,3.58
2023-05-14T08:41:41.975Z,3.38
2023-05-14T08:44:52.459Z,3.20
2023-05-14T08:47:22.537Z,3.97
2023-05-14T08:50:12.323Z,4.32
2023-05-14T08:52:40.180Z,4.05
2023-05-14T08:55:08.154Z,3.25
2023-05-14T08:57:35.709Z,3.60
2023-05-14T09:00:08.850Z,3.20
2023-05-14T09:02:37.134Z,3.20
2023-05-14T09:05:04.541Z,2.97
2023-05-14T09:07:32.110Z,2.90
2023-05-14T09:10:00.298Z,3.20
2023-05-14T09:12:27.454Z,3.17
2023-05-14T09:14:54.541Z,3.42
2023-05-14T09:17:21.707Z,3.15
2023-05-14T09:19:53.326Z,3.28
2023-05-14T09:22:20.928Z,3.50
2023-05-14T09:25:06.195Z,3.22
2023-05-14T09:27:34.131Z,3.50
2023-05-14T09:30:11.400Z,3.25
2023-05-14T09:32:50.741Z,3.20
2023-05-14T09:35:21.040Z,3.60
2023-05-14T09:37:50.060Z,3.28
2023-05-14T09:40:18.760Z,3.17
2023-05-14T09:42:46.507Z,3.42
2023-05-14T09:45:13.653Z,2.90
2023-05-14T09:47:41.209Z,3.35
2023-05-14T09:50:09.445Z,3.35
2023-05-14T09:52:36.565Z,3.65
2023-05-14T09:55:04.407Z,4.15
2023-05-14T09:57:31.602Z,3.35
2023-05-14T09:59:58.640Z,3.50
2023-05-14T10:02:41.657Z,3.35
2023-05-14T10:05:09.233Z,3.15
2023-05-14T10:07:49.554Z,3.05
2023-05-14T10:10:20.292Z,3.17
2023-05-14T10:12:53.445Z,3.13
2023-05-14T10:15:42.857Z,2.75
2023-05-14T10:18:18.306Z,2.60
2023-05-14T10:20:49.348Z,2.78
2023-05-14T10:23:16.731Z,3.15
2023-05-14T10:25:44.562Z,2.97
2023-05-14T10:28:12.060Z,2.92
2023-05-14T10:30:46.576Z,2.80
2023-05-14T10:33:19.402Z,3.03
2023-05-14T10:35:55.711Z,3.60
2023-05-14T10:38:27.482Z,3.20
2023-05-14T10:41:00.885Z,3.35
2023-05-14T10:43:32.204Z,3.20
2023-05-14T10:46:00.860Z,2.97
2023-05-14T10:48:28.211Z,2.70
2023-05-14T10:50:56.700Z,3.20
2023-05-14T10:53:40.455Z,3.17
2023-05-14T10:56:13.552Z,3.03
2023-05-14T10:58:44.278Z,3.05
2023-05-14T11:01:13.178Z,3.05
2023-05-14T11:03:45.820Z,2.72
2023-05-14T11:06:15.331Z,2.83
2023-05-14T11:08:43.070Z,3.05
2023-05-14T11:11:11.113Z,2.83
2023-05-14T11:13:38.967Z,3.17
2023-05-14T11:18:39.054Z,2.85
2023-05-14T11:21:06.328Z,3.40
2023-05-14T11:23:33.545Z,2.63
2023-05-14T11:26:00.672Z,2.95
2023-05-14T11:28:27.850Z,3.00
2023-05-14T11:30:55.044Z,2.95
2023-05-14T11:33:28.188Z,3.20
2023-05-14T11:35:55.396Z,2.70
2023-05-14T11:38:22.719Z,2.85
2023-05-14T11:40:57.056Z,3.05
2023-05-14T11:43:24.571Z,2.72
2023-05-14T11:45:52.905Z,2.95
2023-05-14T11:48:24.352Z,2.90
2023-05-14T11:50:53.134Z,2.85
2023-05-14T11:53:28.406Z,2.80
2023-05-14T11:55:55.876Z,2.60
2023-05-14T11:58:23.054Z,3.00
2023-05-14T12:00:55.801Z,3.10
2023-05-14T12:03:26.519Z,3.10
2023-05-14T12:06:01.845Z,2.72
2023-05-14T12:08:31.612Z,3.15
2023-05-14T12:11:00.364Z,3.30
2023-05-14T12:13:31.661Z,2.90
2023-05-14T12:16:02.900Z,2.90
2023-05-14T12:18:32.405Z,2.53
2023-05-14T12:21:04.760Z,2.53
2023-05-14T12:23:33.031Z,2.95
2023-05-14T12:26:07.343Z,2.90
2023-05-14T12:28:38.009Z,2.85
2023-05-14T12:31:06.076Z,2.90
2023-05-14T12:33:33.226Z,2.78
2023-05-14T12:36:20.523Z,3.00
2023-05-14T12:38:50.561Z,3.25
2023-05-14T12:41:18.848Z,2.92
2023-05-14T12:43:48.841Z,2.70
2023-05-14T12:46:16.962Z,3.35
2023-05-14T12:48:44.262Z,3.05
2023-05-14T12:51:11.405Z,3.20
2023-05-14T12:53:38.709Z,2.63
2023-05-14T12:56:06.877Z,3.17
2023-05-14T12:58:34.247Z,2.90
2023-05-14T13:01:01.612Z,3.38
2023-05-14T13:03:28.725Z,3.47
2023-05-14T13:05:55.859Z,3.50
2023-05-14T13:08:25.462Z,3.22
2023-05-14T13:10:53.559Z,3.75
2023-05-14T13:13:21.044Z,3.22
2023-05-14T13:15:48.205Z,3.60
2023-05-14T13:18:16.536Z,3.30
2023-05-14T13:20:43.763Z,3.55
2023-05-14T13:23:10.914Z,3.63
2023-05-14T13:25:38.048Z,4.00
2023-05-14T13:28:05.383Z,3.92
2023-05-14T13:30:32.628Z,3.45
2023-05-14T13:33:00.344Z,3.45
2023-05-14T13:35:27.605Z,3.80
2023-05-14T13:37:54.647Z,3.42
2023-05-14T13:40:21.822Z,3.33
2023-05-14T13:42:48.978Z,3.40
2023-05-14T13:45:16.025Z,3.42
2023-05-14T13:47:43.188Z,2.97
2023-05-14T13:50:10.597Z,3.33
2023-05-14T13:52:39.261Z,3.17
2023-05-14T13:55:07.006Z,3.17
2023-05-14T13:57:34.122Z,3.00
2023-05-14T14:00:02.003Z,3.03
2023-05-14T14:02:29.155Z,3.92
2023-05-14T14:04:56.783Z,3.10
2023-05-14T14:07:23.839Z,2.83
2023-05-14T14:09:50.899Z,3.22
2023-05-14T14:12:18.188Z,2.97
2023-05-14T14:14:45.356Z,3.00
2023-05-14T14:17:12.428Z,3.25
2023-05-14T14:19:41.654Z,3.13
2023-05-14T14:22:08.824Z,3.20
2023-05-14T14:24:35.842Z,3.30
2023-05-14T14:27:02.843Z,3.40
2023-05-14T14:29:31.423Z,3.20
2023-05-14T14:31:58.607Z,3.28
2023-05-14T14:34:25.842Z,3.17
2023-05-14T14:36:53.003Z,3.47
2023-05-14T14:39:20.093Z,3.75
2023-05-14T14:41:48.006Z,3.38
2023-05-14T14:44:15.218Z,3.40
2023-05-14T14:46:43.251Z,3.55
2023-05-14T14:49:10.972Z,3.17
2023-05-14T14:51:38.117Z,3.40
2023-05-14T14:54:05.429Z,3.30
2023-05-14T14:56:33.280Z,3.70
2023-05-14T14:59:00.565Z,3.20
2023-05-14T15:01:28.078Z,3.22
2023-05-14T15:03:55.230Z,3.22
2023-05-14T15:06:22.366Z,3.63
2023-05-14T15:08:49.420Z,3.17
2023-05-14T15:11:16.529Z,3.78
2023-05-14T15:13:43.884Z,2.97
2023-05-14T15:16:11.484Z,3.15
2023-05-14T15:18:38.584Z,3.67
2023-05-14T15:21:05.900Z,3.10
2023-05-14T15:23:32.984Z,4.18
2023-05-14T15:26:00.178Z,3.10
2023-05-14T15:28:27.202Z,3.03
2023-05-14T15:30:55.006Z,3.78
2023-05-14T15:33:22.316Z,3.50
2023-05-14T15:35:49.443Z,3.50
2023-05-14T15:38:16.482Z,3.58
2023-05-14T15:40:43.954Z,3.42
2023-05-14T15:43:11.044Z,3.38
2023-05-14T15:45:38.086Z,3.50
2023-05-14T15:48:05.407Z,3.42
2023-05-14T15:50:32.555Z,4.20
2023-05-14T15:53:00.705Z,3.90
2023-05-14T15:55:27.944Z,3.75
2023-05-14T15:57:55.012Z,3.83
2023-05-14T16:00:22.330Z,3.38
2023-05-14T16:02:50.166Z,3.60
2023-05-14T16:05:17.290Z,4.05
2023-05-14T16:07:44.496Z,3.25
2023-05-14T16:10:11.771Z,3.10
2023-05-14T16:12:38.853Z,3.40
2023-05-14T16:15:07.636Z,3.40
2023-05-14T16:17:35.006Z,3.83
2023-05-14T16:20:02.454Z,3.80
2023-05-14T16:22:29.777Z,3.50
2023-05-14T16:24:56.979Z,3.75
2023-05-14T16:27:24.010Z,3.38
2023-05-14T16:29:51.199Z,3.75
2023-05-14T16:32:18.432Z,3.30
2023-05-14T16:34:50.125Z,3.45
2023-05-14T16:37:19.506Z,3.65
2023-05-14T16:39:46.920Z,3.47
2023-05-14T16:42:14.357Z,3.70
2023-05-14T16:44:41.485Z,3.60
2023-05-14T16:47:08.566Z,3.55
2023-05-14T16:49:35.756Z,3.58
2023-05-14T16:52:03.354Z,3.17
2023-05-14T16:54:30.359Z,3.72
2023-05-14T16:56:57.399Z,3.25
2023-05-14T16:59:25.589Z,3.75
2023-05-14T17:01:52.881Z,3.78
2023-05-14T17:04:20.173Z,3.47
2023-05-14T17:06:47.634Z,3.60
2023-05-14T17:09:14.724Z,3.55
2023-05-14T17:11:41.778Z,3.65
2023-05-14T17:14:08.936Z,3.58
2023-05-14T17:16:36.364Z,3.78
2023-05-14T17:19:03.605Z,3.30
2023-05-14T17:21:31.689Z,3.95
2023-05-14T17:23:59.002Z,3.67
2023-05-14T17:26:26.617Z,3.60
2023-05-14T17:28:53.653Z,3.88
2023-05-14T17:31:21.966Z,3.60
2023-05-14T17:33:49.569Z,3.33
2023-05-14T17:36:16.689Z,3.58
2023-05-14T17:38:43.744Z,4.13
2023-05-14T17:41:10.875Z,4.20
2023-05-14T17:43:38.041Z,3.45
2023-05-14T17:46:05.618Z,3.15
2023-05-14T17:48:32.862Z,3.60
2023-05-14T17:50:59.961Z,3.75
2023-05-14T17:53:27.057Z,3.88
2023-05-14T17:55:54.714Z,3.47
2023-05-14T17:58:21.990Z,4.00
2023-05-14T18:00:49.078Z,3.40
2023-05-14T18:03:16.236Z,3.95
2023-05-14T18:05:43.406Z,3.53
2023-05-14T18:08:10.716Z,3.67
2023-05-14T18:10:37.898Z,3.30
2023-05-14T18:13:04.936Z,3.50
2023-05-14T18:15:32.139Z,3.58
2023-05-14T18:17:59.590Z,3.47
2023-05-14T18:20:26.794Z,3.28
2023-05-14T18:22:53.928Z,3.38
2023-05-14T18:25:20.999Z,3.30
2023-05-14T18:27:48.225Z,3.42
2023-05-14T18:30:16.203Z,3.45
2023-05-14T18:32:45.064Z,2.97
2023-05-14T18:35:13.667Z,3.20
2023-05-14T18:37:41.503Z,3.47
2023-05-14T18:40:13.103Z,3.45
2023-05-14T18:42:40.834Z,3.60
2023-05-14T18:45:08.181Z,3.28
2023-05-14T18:47:35.642Z,2.97
2023-05-14T18:50:03.453Z,3.33
2023-05-14T18:52:30.636Z,3.20
2023-05-14T18:54:58.326Z,3.35
2023-05-14T18:57:30.009Z,3.35
2023-05-14T18:59:57.192Z,3.28
2023-05-14T19:02:24.426Z,3.15
2023-05-14T19:04:52.686Z,3.17
2023-05-14T19:07:21.163Z,3.80
2023-05-14T19:09:48.422Z,3.50
2023-05-14T19:12:16.408Z,2.67
2023-05-14T19:14:43.592Z,3.35
2023-05-14T19:17:11.178Z,3.22
2023-05-14T19:19:39.602Z,3.22
2023-05-14T19:22:07.020Z,3.33
2023-05-14T19:24:34.170Z,3.13
2023-05-14T19:27:01.589Z,3.38
2023-05-14T19:29:28.731Z,3.17
2023-05-14T19:31:55.991Z,3.33
2023-05-14T19:34:23.271Z,3.15
2023-05-14T19:36:50.724Z,3.20
2023-05-14T19:39:17.754Z,3.28
2023-05-14T19:41:45.055Z,3.00
2023-05-14T19:44:12.114Z,3.05
2023-05-14T19:46:39.491Z,3.13
2023-05-14T19:49:06.631Z,3.45
2023-05-14T19:51:33.686Z,3.45
2023-05-14T19:54:00.819Z,3.17
2023-05-14T19:56:28.283Z,3.42
2023-05-14T19:58:55.442Z,3.40
2023-05-14T20:01:22.815Z,4.05
2023-05-14T20:03:49.956Z,3.50
2023-05-14T20:06:17.973Z,3.40
2023-05-14T20:08:47.907Z,3.00
2023-05-14T20:11:15.950Z,3.30
2023-05-14T20:13:43.031Z,3.25
2023-05-14T20:16:10.099Z,2.80
2023-05-14T20:18:37.257Z,3.13
2023-05-14T20:21:04.570Z,3.38
2023-05-14T20:23:32.659Z,3.03
2023-05-14T20:26:02.076Z,2.90
2023-05-14T20:28:29.188Z,3.85
2023-05-14T20:30:59.104Z,3.30
2023-05-14T20:33:27.366Z,2.90
2023-05-14T20:35:54.466Z,3.42
2023-05-14T20:38:22.016Z,3.30
2023-05-14T20:40:49.152Z,3.45
2023-05-14T20:43:16.454Z,3.45
2023-05-14T20:45:43.462Z,3.20
2023-05-14T20:48:12.427Z,3.20
2023-05-14T20:50:39.536Z,2.85
2023-05-14T20:53:06.668Z,2.80
2023-05-14T20:55:33.794Z,3.35
2023-05-14T20:58:00.961Z,2.70
2023-05-14T21:00:28.180Z,2.75
2023-05-14T21:02:55.346Z,3.05
2023-05-14T21:05:22.438Z,3.38
2023-05-14T21:07:49.602Z,3.33
2023-05-14T21:10:17.415Z,2.83
2023-05-14T21:12:44.962Z,3.22
2023-05-14T21:15:12.761Z,2.33
2023-05-14T21:17:40.004Z,2.20
2023-05-14T21:20:07.797Z,2.65
2023-05-14T21:22:34.984Z,2.47
2023-05-14T21:25:02.098Z,2.38
2023-05-14T21:27:29.166Z,2.47
2023-05-14T21:29:56.277Z,2.70
2023-05-14T21:32:24.165Z,2.45
2023-05-14T21:34:51.304Z,2.50
2023-05-14T21:37:18.457Z,2.55
2023-05-14T21:39:45.655Z,2.17
2023-05-14T21:42:12.758Z,2.45
2023-05-14T21:44:39.962Z,3.25
2023-05-14T21:47:08.028Z,2.33
2023-05-14T21:49:35.857Z,2.28
2023-05-14T21:52:03.278Z,2.63
2023-05-14T21:54:30.450Z,2.53
2023-05-14T21:56:57.573Z,2.25
2023-05-14T21:59:25.128Z,2.40
2023-05-14T22:02:06.351Z,2.28
2023-05-14T22:04:34.705Z,2.22
2023-05-14T22:07:01.972Z,2.55
2023-05-14T22:09:29.262Z,2.38
2023-05-14T22:11:57.759Z,2.38
2023-05-14T22:14:26.736Z,2.20
2023-05-14T22:16:54.061Z,2.30
2023-05-14T22:19:21.560Z,2.33
2023-05-14T22:21:48.825Z,2.20
2023-05-14T22:24:19.777Z,2.80
2023-05-14T22:26:47.009Z,2.78
2023-05-14T22:29:14.124Z,2.88
2023-05-14T22:31:41.233Z,2.20
2023-05-14T22:34:08.371Z,2.35
2023-05-14T22:36:35.737Z,2.30
2023-05-14T22:39:02.817Z,2.35
2023-05-14T22:41:30.029Z,2.53
2023-05-14T22:43:57.076Z,2.30
2023-05-14T22:46:24.363Z,2.20
2023-05-14T22:48:51.868Z,2.20
2023-05-14T22:51:18.940Z,2.28
2023-05-14T22:53:47.375Z,2.30
2023-05-14T22:56:15.132Z,2.40
2023-05-14T22:58:42.229Z,2.35
2023-05-14T23:01:09.288Z,2.45
2023-05-14T23:03:36.427Z,2.20
2023-05-14T23:06:03.484Z,2.47
2023-05-14T23:08:30.564Z,2.10
2023-05-14T23:10:57.725Z,2.28
2023-05-14T23:13:24.958Z,2.60
2023-05-14T23:15:52.127Z,2.60
2023-05-14T23:18:19.305Z,2.33
2023-05-14T23:20:46.519Z,2.85
2023-05-14T23:23:13.662Z,2.40
2023-05-14T23:25:40.814Z,2.40
2023-05-14T23:28:07.927Z,2.47
2023-05-14T23:30:35.105Z,2.70
2023-05-14T23:33:02.253Z,2.55
2023-05-14T23:35:30.955Z,2.60
2023-05-14T23:37:58.272Z,2.58
2023-05-14T23:40:25.463Z,2.33
2023-05-14T23:42:52.795Z,2.53
2023-05-14T23:45:20.119Z,2.55
2023-05-14T23:47:47.305Z,2.35
2023-05-14T23:50:14.392Z,2.67
2023-05-14T23:52:41.400Z,2.50
2023-05-14T23:55:08.864Z,2.58
2023-05-14T23:57:36.124Z,2.75
